Time;durP1;ratioP1;P1;durP2;ratioP2;P2;SDS_P1;SDS_P2;PMS_P1;PMS_P2;Temp;Humidity;BMP_temperature;BMP_pressure;BME280_temperature;BME280_humidity;BME280_pressure;Samples;Min_cycle;Max_cycle;Signal;HPM_P1;HPM_P2
2023/11/13 00:00:02;;;;;;;5.60;4.45;;;;;;;;;;5027013;28;20049;-84
2023/11/13 00:02:35;;;;;;;4.32;3.78;;;;;;;;;;5045094;28;20511;-83
2023/11/13 00:05:05;;;;;;;6.03;4.65;;;;;;;;;;5050909;28;20055;-84
2023/11/13 00:07:36;;;;;;;4.82;4.38;;;;;;;;;;5032584;28;20056;-84
2023/11/13 00:10:08;;;;;;;5.32;3.95;;;;;;;;;;5053341;28;20053;-85
2023/11/13 00:12:37;;;;;;;4.32;3.92;;;;;;;;;;5033642;28;20053;-84
2023/11/13 00:15:06;;;;;;;5.93;5.32;;;;;;;;;;5032488;28;20044;-84
2023/11/13 00:17:33;;;;;;;6.07;5.35;;;;;;;;;;5033194;28;20514;-84
2023/11/13 00:20:01;;;;;;;5.90;5.30;;;;;;;;;;5050506;28;20045;-84
2023/11/13 00:22:28;;;;;;;4.82;3.88;;;;;;;;;;5017354;28;20053;-84
2023/11/13 00:24:58;;;;;;;6.65;4.72;;;;;;;;;;5027341;28;20041;-84
2023/11/13 00:27:26;;;;;;;6.72;4.65;;;;;;;;;;5051032;28;20052;-84
2023/11/13 00:29:54;;;;;;;6.03;4.45;;;;;;;;;;5042666;28;20048;-84
2023/11/13 00:32:23;;;;;;;5.85;4.53;;;;;;;;;;5014884;28;20057;-83
2023/11/13 00:34:51;;;;;;;5.13;4.50;;;;;;;;;;5031242;28;20053;-83
2023/11/13 00:37:18;;;;;;;6.25;5.50;;;;;;;;;;5031850;28;20041;-83
2023/11/13 00:39:45;;;;;;;6.40;5.25;;;;;;;;;;5016863;28;20068;-83
2023/11/13 00:42:12;;;;;;;6.80;4.90;;;;;;;;;;5014056;28;20407;-83
2023/11/13 00:44:41;;;;;;;6.68;4.68;;;;;;;;;;5031919;28;20053;-83
2023/11/13 00:47:08;;;;;;;6.68;5.90;;;;;;;;;;5009569;28;20053;-83
2023/11/13 00:49:38;;;;;;;5.78;5.15;;;;;;;;;;5013618;28;20053;-83
2023/11/13 00:52:05;;;;;;;5.55;4.97;;;;;;;;;;5027006;28;20061;-83
2023/11/13 00:54:34;;;;;;;5.68;5.13;;;;;;;;;;5028761;28;20045;-83
2023/11/13 00:57:01;;;;;;;7.18;5.57;;;;;;;;;;5033567;28;20040;-83
2023/11/13 00:59:30;;;;;;;5.95;4.85;;;;;;;;;;5016397;28;20059;-84
2023/11/13 01:02:02;;;;;;;7.97;5.22;;;;;;;;;;5024539;28;20055;-83
2023/11/13 01:04:32;;;;;;;6.95;5.35;;;;;;;;;;5008029;28;20046;-83
2023/11/13 01:07:04;;;;;;;5.10;4.40;;;;;;;;;;5014180;28;20380;-84
2023/11/13 01:09:32;;;;;;;8.57;5.40;;;;;;;;;;5031603;28;20045;-84
2023/11/13 01:11:59;;;;;;;6.65;4.90;;;;;;;;;;5031904;28;20037;-84
2023/11/13 01:14:32;;;;;;;8.65;4.85;;;;;;;;;;5014111;28;20053;-84
2023/11/13 01:16:59;;;;;;;7.20;5.78;;;;;;;;;;5025379;28;20042;-84
2023/11/13 01:19:30;;;;;;;5.15;4.25;;;;;;;;;;4999652;28;20049;-84
2023/11/13 01:21:59;;;;;;;6.78;6.05;;;;;;;;;;5026759;28;20041;-84
2023/11/13 01:24:27;;;;;;;5.70;4.72;;;;;;;;;;5014250;28;20053;-84
2023/11/13 01:26:54;;;;;;;6.25;5.65;;;;;;;;;;5027850;28;20045;-84
2023/11/13 01:29:21;;;;;;;4.97;4.25;;;;;;;;;;5025594;28;20053;-84
2023/11/13 01:31:48;;;;;;;6.35;4.93;;;;;;;;;;5009333;28;20049;-84
2023/11/13 01:34:17;;;;;;;6.75;5.15;;;;;;;;;;5024114;28;20057;-84
2023/11/13 01:36:46;;;;;;;5.63;5.13;;;;;;;;;;5029229;28;20045;-83
2023/11/13 01:39:15;;;;;;;6.18;5.55;;;;;;;;;;5016241;28;20048;-83
2023/11/13 01:41:45;;;;;;;9.40;5.57;;;;;;;;;;5030454;28;20060;-84
2023/11/13 01:44:14;;;;;;;9.93;6.45;;;;;;;;;;5024208;28;20075;-84
2023/11/13 01:53:01;;;;;;;5.45;4.93;;;;;;;;;;5009272;28;20426;-80
2023/11/13 01:55:30;;;;;;;7.75;5.55;;;;;;;;;;4997562;28;20041;-80
2023/11/13 01:57:58;;;;;;;5.70;5.00;;;;;;;;;;5001572;28;20144;-80
2023/11/13 02:00:27;;;;;;;7.15;5.35;;;;;;;;;;5010827;28;20498;-80
2023/11/13 02:02:54;;;;;;;6.45;5.18;;;;;;;;;;4983658;28;20050;-80
2023/11/13 02:05:24;;;;;;;6.63;5.82;;;;;;;;;;5008075;28;20060;-80
2023/11/13 02:07:52;;;;;;;7.55;5.82;;;;;;;;;;5026705;28;20053;-80
2023/11/13 02:10:21;;;;;;;9.25;5.82;;;;;;;;;;4996704;28;20048;-80
2023/11/13 02:12:51;;;;;;;7.53;6.60;;;;;;;;;;5031981;28;20056;-80
2023/11/13 02:15:19;;;;;;;5.80;4.97;;;;;;;;;;5001697;28;20074;-80
2023/11/13 02:18:02;;;;;;;6.43;5.03;;;;;;;;;;5017997;28;20050;-80
2023/11/13 02:21:02;;;;;;;8.30;6.33;;;;;;;;;;5014327;28;20041;-80
2023/11/13 02:24:06;;;;;;;5.22;4.47;;;;;;;;;;5012719;28;20300;-80
2023/11/13 02:30:54;;;;;;;5.97;4.65;;;;;;;;;;4850093;29;20499;-80
2023/11/13 02:39:08;;;;;;;6.15;5.55;;;;;;;;;;4910685;28;20058;-80
2023/11/13 02:42:16;;;;;;;5.10;4.35;;;;;;;;;;4922833;29;20074;-80
2023/11/13 02:48:23;;;;;;;5.28;4.70;;;;;;;;;;4998426;28;20057;-81
2023/11/13 02:50:51;;;;;;;8.70;6.18;;;;;;;;;;5031116;28;20044;-81
2023/11/13 02:53:18;;;;;;;5.88;4.85;;;;;;;;;;5002223;28;20060;-80
2023/11/13 02:55:48;;;;;;;6.30;5.05;;;;;;;;;;5002725;28;20057;-80
2023/11/13 02:58:16;;;;;;;5.32;4.60;;;;;;;;;;5027399;28;20045;-80
2023/11/13 03:00:47;;;;;;;5.25;4.43;;;;;;;;;;5002332;28;20053;-80
2023/11/13 03:03:14;;;;;;;6.15;4.68;;;;;;;;;;5003923;28;20064;-80
2023/11/13 03:05:43;;;;;;;5.93;4.53;;;;;;;;;;5005103;28;20414;-80
2023/11/13 03:18:18;;;;;;;6.32;5.45;;;;;;;;;;5010070;28;20046;-81
2023/11/13 03:20:46;;;;;;;5.28;3.90;;;;;;;;;;4978796;28;20057;-81
2023/11/13 03:23:15;;;;;;;5.70;4.93;;;;;;;;;;5011330;28;20539;-81
2023/11/13 03:25:45;;;;;;;5.05;4.53;;;;;;;;;;5014332;28;20420;-81
2023/11/13 03:28:13;;;;;;;4.47;3.67;;;;;;;;;;4988815;28;20050;-81
2023/11/13 03:30:42;;;;;;;4.30;3.90;;;;;;;;;;4992656;28;20058;-81
2023/11/13 03:33:27;;;;;;;;;;;;;;;;;;;;;
2023/11/13 03:36:25;;;;;;;6.82;3.85;;;;;;;;;;5004357;28;20046;-80
2023/11/13 03:39:19;;;;;;;3.53;3.22;;;;;;;;;;4994896;28;20049;-81
2023/11/13 03:41:49;;;;;;;4.00;3.22;;;;;;;;;;4993732;28;20068;-81
2023/11/13 03:44:17;;;;;;;4.25;3.17;;;;;;;;;;4957730;28;20137;-81
2023/11/13 03:46:48;;;;;;;4.60;3.95;;;;;;;;;;5027197;28;20500;-81
2023/11/13 03:49:15;;;;;;;5.43;4.30;;;;;;;;;;4986841;28;20050;-81
2023/11/13 03:51:44;;;;;;;4.35;2.90;;;;;;;;;;5014657;28;20171;-81
2023/11/13 04:07:32;;;;;;;4.05;3.03;;;;;;;;;;4764652;30;20059;-82
2023/11/13 04:10:15;;;;;;;3.42;2.97;;;;;;;;;;4795425;29;20090;-81
2023/11/13 05:03:32;;;;;;;;;;;;;;;;;;;;;
2023/11/13 05:09:34;;;;;;;3.13;2.58;;;;;;;;;;4900795;28;20046;-80
2023/11/13 05:12:05;;;;;;;3.40;2.25;;;;;;;;;;4930368;29;20055;-80
2023/11/13 05:14:58;;;;;;;2.55;1.92;;;;;;;;;;5046172;28;20049;-80
2023/11/13 05:17:36;;;;;;;3.22;2.60;;;;;;;;;;5041457;28;20048;-80
2023/11/13 05:20:09;;;;;;;3.20;2.63;;;;;;;;;;5043630;28;20048;-80
2023/11/13 05:22:51;;;;;;;3.65;2.88;;;;;;;;;;5044245;28;20067;-80
2023/11/13 05:25:51;;;;;;;3.42;2.88;;;;;;;;;;5073670;28;20044;-80
2023/11/13 05:28:25;;;;;;;4.22;3.83;;;;;;;;;;5058415;28;20048;-80
2023/11/13 05:31:21;;;;;;;4.10;3.10;;;;;;;;;;5064704;28;20502;-80
2023/11/13 05:37:55;;;;;;;4.45;3.25;;;;;;;;;;4968764;28;20058;-81
2023/11/13 05:43:19;;;;;;;3.45;2.92;;;;;;;;;;5039068;28;20387;-80
2023/11/13 05:45:49;;;;;;;3.90;3.50;;;;;;;;;;5057943;28;20048;-80
2023/11/13 05:48:16;;;;;;;5.95;4.32;;;;;;;;;;5062743;28;20056;-79
2023/11/13 05:50:44;;;;;;;4.63;3.50;;;;;;;;;;5059392;28;20063;-79
2023/11/13 05:53:11;;;;;;;7.03;4.28;;;;;;;;;;5048571;28;20045;-79
2023/11/13 05:55:38;;;;;;;5.72;4.53;;;;;;;;;;5054728;28;20044;-80
2023/11/13 05:58:05;;;;;;;5.60;4.88;;;;;;;;;;5041178;28;20059;-80
2023/11/13 06:00:33;;;;;;;4.93;3.50;;;;;;;;;;5056652;28;20048;-80
2023/11/13 06:03:02;;;;;;;6.38;3.45;;;;;;;;;;5054069;28;20407;-80
2023/11/13 06:05:29;;;;;;;8.77;4.65;;;;;;;;;;5054140;28;20048;-80
2023/11/13 06:07:57;;;;;;;8.32;3.75;;;;;;;;;;5055012;28;20068;-80
2023/11/13 06:10:24;;;;;;;6.53;3.78;;;;;;;;;;5054318;28;20513;-80
2023/11/13 06:12:52;;;;;;;12.60;4.78;;;;;;;;;;5039175;28;20518;-80
2023/11/13 06:15:20;;;;;;;10.13;4.63;;;;;;;;;;5071260;28;20075;-80
2023/11/13 06:17:47;;;;;;;5.90;3.80;;;;;;;;;;5049784;28;20053;-80
2023/11/13 06:20:19;;;;;;;12.45;4.65;;;;;;;;;;5073510;28;20044;-80
2023/11/13 06:22:47;;;;;;;12.88;4.78;;;;;;;;;;5055879;28;20060;-80
2023/11/13 06:25:15;;;;;;;11.02;4.68;;;;;;;;;;5056600;28;20052;-80
2023/11/13 06:27:47;;;;;;;14.88;5.32;;;;;;;;;;5036631;28;20061;-80
2023/11/13 06:30:18;;;;;;;22.90;6.88;;;;;;;;;;5061063;28;20047;-80
2023/11/13 06:32:48;;;;;;;11.55;6.00;;;;;;;;;;5041066;28;20056;-80
2023/11/13 06:35:16;;;;;;;9.63;4.43;;;;;;;;;;5039497;28;20048;-80
2023/11/13 06:37:48;;;;;;;9.90;4.68;;;;;;;;;;5059228;28;20053;-80
2023/11/13 06:40:16;;;;;;;11.98;5.75;;;;;;;;;;5057422;28;20036;-80
2023/11/13 06:42:47;;;;;;;16.50;5.78;;;;;;;;;;5068677;28;20060;-80
2023/11/13 06:45:15;;;;;;;15.70;6.20;;;;;;;;;;5082129;28;20048;-80
2023/11/13 06:47:50;;;;;;;9.43;4.78;;;;;;;;;;5065591;28;20055;-80
2023/11/13 06:50:23;;;;;;;15.20;5.50;;;;;;;;;;5061548;28;20042;-80
2023/11/13 06:52:55;;;;;;;19.70;5.93;;;;;;;;;;5055863;28;20056;-80
2023/11/13 06:55:22;;;;;;;12.27;5.53;;;;;;;;;;5071726;28;20068;-80
2023/11/13 06:57:50;;;;;;;11.82;5.57;;;;;;;;;;5070236;28;20055;-80
2023/11/13 07:00:21;;;;;;;11.48;4.78;;;;;;;;;;5075876;28;20052;-80
2023/11/13 07:02:50;;;;;;;13.02;4.47;;;;;;;;;;5041595;28;20514;-80
2023/11/13 07:05:17;;;;;;;12.60;5.43;;;;;;;;;;5064120;28;20044;-80
2023/11/13 07:07:48;;;;;;;15.02;6.25;;;;;;;;;;5052020;28;20048;-80
2023/11/13 07:10:16;;;;;;;14.70;5.78;;;;;;;;;;5046027;28;20036;-79
2023/11/13 07:12:43;;;;;;;15.80;5.07;;;;;;;;;;5050355;28;20060;-80
2023/11/13 07:15:13;;;;;;;14.18;5.80;;;;;;;;;;5050780;28;20040;-79
2023/11/13 07:17:40;;;;;;;13.98;4.78;;;;;;;;;;5036213;28;20411;-79
2023/11/13 07:20:13;;;;;;;16.10;4.53;;;;;;;;;;5051207;28;20063;-80
2023/11/13 07:22:40;;;;;;;15.05;4.97;;;;;;;;;;5073890;28;20049;-80
2023/11/13 07:25:14;;;;;;;14.25;5.18;;;;;;;;;;5050668;28;20051;-80
2023/11/13 07:27:44;;;;;;;11.05;4.40;;;;;;;;;;5046709;28;20687;-81
2023/11/13 07:30:11;;;;;;;8.05;4.00;;;;;;;;;;5057510;28;20051;-81
2023/11/13 07:32:41;;;;;;;8.82;4.45;;;;;;;;;;5048941;28;20057;-81
2023/11/13 07:35:11;;;;;;;8.00;5.05;;;;;;;;;;5053886;28;20040;-81
2023/11/13 07:37:42;;;;;;;9.98;4.03;;;;;;;;;;5069762;28;20060;-81
2023/11/13 07:40:10;;;;;;;10.75;5.63;;;;;;;;;;5050159;28;20056;-81
2023/11/13 07:42:40;;;;;;;10.18;4.00;;;;;;;;;;5044226;28;20049;-81
2023/11/13 07:45:09;;;;;;;13.82;6.38;;;;;;;;;;5037272;28;20570;-81
2023/11/13 07:47:40;;;;;;;10.27;5.30;;;;;;;;;;5038267;28;20057;-81
2023/11/13 07:50:11;;;;;;;7.45;5.65;;;;;;;;;;5055767;28;20055;-81
2023/11/13 07:52:44;;;;;;;10.18;4.85;;;;;;;;;;5049230;28;20053;-82
2023/11/13 07:55:12;;;;;;;;;;;;;;;;;;5029591;28;20045;-82
2023/11/13 07:57:41;;;;;;;12.65;5.18;;;;;;;;;;5063172;28;19925;-81
2023/11/13 08:00:15;;;;;;;16.30;5.25;;;;;;;;;;5048234;28;20414;-82
2023/11/13 08:02:43;;;;;;;14.00;5.78;;;;;;;;;;5054952;28;20045;-81
2023/11/13 08:05:11;;;;;;;13.25;4.68;;;;;;;;;;5052472;28;20499;-81
2023/11/13 08:07:39;;;;;;;8.10;4.15;;;;;;;;;;5032599;28;20052;-81
2023/11/13 08:10:12;;;;;;;15.80;5.38;;;;;;;;;;5051347;28;20056;-81
2023/11/13 08:12:43;;;;;;;7.30;4.55;;;;;;;;;;5049304;28;20056;-81
2023/11/13 08:15:13;;;;;;;8.73;4.35;;;;;;;;;;5045836;28;20403;-80
2023/11/13 08:17:42;;;;;;;10.60;4.85;;;;;;;;;;5080402;22;20050;-84
2023/11/13 08:20:13;;;;;;;7.88;4.43;;;;;;;;;;4991674;28;20053;-85
2023/11/13 08:22:41;;;;;;;6.85;3.70;;;;;;;;;;4993799;28;20511;-85
2023/11/13 08:25:11;;;;;;;10.65;3.75;;;;;;;;;;5002820;28;20049;-85
2023/11/13 08:27:43;;;;;;;9.70;3.60;;;;;;;;;;4996768;28;20407;-85
2023/11/13 08:30:14;;;;;;;9.38;4.30;;;;;;;;;;4998660;28;20662;-85
2023/11/13 08:32:41;;;;;;;12.77;3.50;;;;;;;;;;4977242;28;20062;-85
2023/11/13 08:35:12;;;;;;;12.55;3.75;;;;;;;;;;5002513;28;20048;-85
2023/11/13 08:37:40;;;;;;;12.20;7.72;;;;;;;;;;4987371;28;20068;-86
2023/11/13 08:40:12;;;;;;;10.00;4.63;;;;;;;;;;4994321;28;20129;-85
2023/11/13 08:42:42;;;;;;;9.93;4.22;;;;;;;;;;4972955;28;20514;-85
2023/11/13 08:45:12;;;;;;;9.13;3.50;;;;;;;;;;4987756;28;20045;-85
2023/11/13 08:47:41;;;;;;;9.10;2.90;;;;;;;;;;5017307;28;20046;-85
2023/11/13 08:50:11;;;;;;;4.88;2.65;;;;;;;;;;5021292;28;20041;-85
2023/11/13 08:52:46;;;;;;;9.73;3.20;;;;;;;;;;5023679;28;20072;-86
2023/11/13 08:55:18;;;;;;;6.70;3.65;;;;;;;;;;4980421;28;20041;-85
2023/11/13 08:57:47;;;;;;;10.50;4.30;;;;;;;;;;4994531;28;20057;-85
2023/11/13 09:00:21;;;;;;;6.68;3.08;;;;;;;;;;4995401;28;20042;-85
2023/11/13 09:02:48;;;;;;;7.25;4.13;;;;;;;;;;4965411;28;20053;-85
2023/11/13 09:05:19;;;;;;;6.85;3.70;;;;;;;;;;4980152;28;20046;-85
2023/11/13 09:07:50;;;;;;;8.98;3.35;;;;;;;;;;5003893;28;20407;-85
2023/11/13 09:10:21;;;;;;;9.88;3.72;;;;;;;;;;4997243;28;20033;-86
2023/11/13 09:12:52;;;;;;;9.83;3.57;;;;;;;;;;5007551;28;20068;-86
2023/11/13 09:15:22;;;;;;;7.65;3.10;;;;;;;;;;5011427;28;20072;-86
2023/11/13 09:17:54;;;;;;;7.63;3.25;;;;;;;;;;5010636;28;20054;-85
2023/11/13 09:20:24;;;;;;;8.23;4.57;;;;;;;;;;4999186;28;20057;-85
2023/11/13 09:22:53;;;;;;;6.88;3.80;;;;;;;;;;4993144;28;20061;-85
2023/11/13 09:25:22;;;;;;;9.82;2.42;;;;;;;;;;5006890;28;20053;-85
2023/11/13 09:27:50;;;;;;;6.75;3.60;;;;;;;;;;4997838;28;20065;-85
2023/11/13 09:30:20;;;;;;;7.25;4.18;;;;;;;;;;5022393;28;20675;-85
2023/11/13 09:32:52;;;;;;;4.13;2.70;;;;;;;;;;4996178;28;20050;-85
2023/11/13 09:35:23;;;;;;;7.45;4.05;;;;;;;;;;4990273;28;20056;-85
2023/11/13 09:37:51;;;;;;;4.95;2.85;;;;;;;;;;5012159;28;20489;-85
2023/11/13 09:40:21;;;;;;;7.75;3.10;;;;;;;;;;4982361;28;20049;-86
2023/11/13 09:42:51;;;;;;;6.85;3.03;;;;;;;;;;5008248;28;20056;-85
2023/11/13 09:45:20;;;;;;;4.43;3.15;;;;;;;;;;5014297;28;20058;-85
2023/11/13 09:47:49;;;;;;;4.63;3.00;;;;;;;;;;4980854;28;20046;-85
2023/11/13 09:50:20;;;;;;;4.18;3.35;;;;;;;;;;4999003;28;20420;-85
2023/11/13 09:52:52;;;;;;;6.88;3.45;;;;;;;;;;4994745;28;20415;-85
2023/11/13 09:55:26;;;;;;;5.80;4.03;;;;;;;;;;4996838;28;20073;-85
2023/11/13 09:57:54;;;;;;;6.88;3.83;;;;;;;;;;4994117;28;20046;-85
2023/11/13 10:00:30;;;;;;;7.55;4.00;;;;;;;;;;5009922;28;20045;-85
2023/11/13 10:03:00;;;;;;;11.95;4.82;;;;;;;;;;4985091;28;20056;-85
2023/11/13 10:05:30;;;;;;;9.60;4.38;;;;;;;;;;4993744;28;20056;-85
2023/11/13 10:07:58;;;;;;;6.18;4.40;;;;;;;;;;4996371;28;20073;-85
2023/11/13 10:10:28;;;;;;;6.80;5.68;;;;;;;;;;5009849;28;20053;-85
2023/11/13 10:12:58;;;;;;;5.65;3.40;;;;;;;;;;4990769;28;20050;-85
2023/11/13 10:15:30;;;;;;;8.55;5.18;;;;;;;;;;5015469;28;20049;-85
2023/11/13 10:17:59;;;;;;;4.90;3.72;;;;;;;;;;5000153;28;20436;-85
2023/11/13 10:20:27;;;;;;;5.60;4.10;;;;;;;;;;5009603;28;20062;-85
2023/11/13 10:22:59;;;;;;;4.68;3.00;;;;;;;;;;4985103;28;20432;-85
2023/11/13 10:25:40;;;;;;;4.47;4.07;;;;;;;;;;4998706;28;20057;-85
2023/11/13 10:28:09;;;;;;;5.80;2.92;;;;;;;;;;5007797;28;20381;-85
2023/11/13 10:30:53;;;;;;;5.65;3.13;;;;;;;;;;4995668;28;20065;-85
2023/11/13 10:33:21;;;;;;;5.22;2.70;;;;;;;;;;5014545;28;20053;-85
2023/11/13 10:35:50;;;;;;;5.00;2.70;;;;;;;;;;5009232;28;20412;-85
2023/11/13 10:38:17;;;;;;;9.07;2.70;;;;;;;;;;5009527;28;20042;-85
2023/11/13 10:40:55;;;;;;;4.40;3.08;;;;;;;;;;4981148;28;20442;-85
2023/11/13 10:43:28;;;;;;;3.47;3.15;;;;;;;;;;4992590;28;20060;-85
2023/11/13 10:45:58;;;;;;;9.05;4.13;;;;;;;;;;4979097;28;20058;-85
2023/11/13 10:48:31;;;;;;;4.60;3.28;;;;;;;;;;4999154;28;20514;-85
2023/11/13 10:51:03;;;;;;;6.53;3.65;;;;;;;;;;4993042;28;20539;-85
2023/11/13 10:53:35;;;;;;;5.20;2.92;;;;;;;;;;4990199;28;20144;-85
2023/11/13 10:56:02;;;;;;;7.13;3.08;;;;;;;;;;4972821;28;20046;-85
2023/11/13 10:58:30;;;;;;;5.10;3.03;;;;;;;;;;4995566;28;20046;-85
2023/11/13 11:01:02;;;;;;;9.02;3.03;;;;;;;;;;4975468;28;20061;-85
2023/11/13 11:03:33;;;;;;;6.28;3.53;;;;;;;;;;4995406;28;20053;-86
2023/11/13 11:06:09;;;;;;;5.88;3.65;;;;;;;;;;5008408;28;20396;-85
2023/11/13 11:08:38;;;;;;;5.60;2.90;;;;;;;;;;4978740;28;20393;-85
2023/11/13 11:11:06;;;;;;;5.05;3.13;;;;;;;;;;4979500;28;20518;-85
2023/11/13 11:13:39;;;;;;;3.65;3.17;;;;;;;;;;5008923;28;20050;-85
2023/11/13 11:16:19;;;;;;;3.88;3.10;;;;;;;;;;5011007;28;20061;-85
2023/11/13 11:18:52;;;;;;;7.95;2.97;;;;;;;;;;4999038;28;20050;-85
2023/11/13 11:21:35;;;;;;;4.07;3.28;;;;;;;;;;4998544;28;20065;-85
2023/11/13 11:24:11;;;;;;;6.10;3.13;;;;;;;;;;4981570;28;20061;-85
2023/11/13 11:26:52;;;;;;;5.07;3.13;;;;;;;;;;4992308;28;20065;-85
2023/11/13 11:29:31;;;;;;;5.57;3.78;;;;;;;;;;4998101;28;20401;-85
2023/11/13 11:32:10;;;;;;;4.40;3.35;;;;;;;;;;4995111;28;20491;-86
2023/11/13 11:34:41;;;;;;;6.03;3.72;;;;;;;;;;5003487;28;20050;-85
2023/11/13 11:37:10;;;;;;;4.35;3.08;;;;;;;;;;4975122;28;20396;-85
2023/11/13 11:39:45;;;;;;;6.55;3.95;;;;;;;;;;5009095;28;20076;-85
2023/11/13 11:42:20;;;;;;;4.43;3.30;;;;;;;;;;4994751;28;20052;-86
2023/11/13 11:44:58;;;;;;;5.43;4.72;;;;;;;;;;4978779;28;20408;-85
2023/11/13 11:47:27;;;;;;;3.35;2.55;;;;;;;;;;4995837;28;20038;-85
2023/11/13 11:49:58;;;;;;;5.78;3.95;;;;;;;;;;5001149;28;20050;-85
2023/11/13 11:52:43;;;;;;;4.20;2.53;;;;;;;;;;5008111;28;20388;-85
2023/11/13 11:55:13;;;;;;;5.93;2.42;;;;;;;;;;5004798;28;20054;-85
2023/11/13 11:57:45;;;;;;;5.78;3.05;;;;;;;;;;4975256;28;20419;-85
2023/11/13 12:00:19;;;;;;;5.18;3.45;;;;;;;;;;5010829;28;20421;-85
2023/11/13 12:02:51;;;;;;;5.38;4.28;;;;;;;;;;5007332;28;20042;-85
2023/11/13 12:05:19;;;;;;;3.40;2.47;;;;;;;;;;4992582;28;20053;-85
2023/11/13 12:07:50;;;;;;;4.57;2.90;;;;;;;;;;5010486;28;20052;-85
2023/11/13 12:10:20;;;;;;;7.80;3.60;;;;;;;;;;5015905;28;20054;-85
2023/11/13 12:12:48;;;;;;;7.18;4.40;;;;;;;;;;4995741;28;20050;-85
2023/11/13 12:15:16;;;;;;;4.22;3.25;;;;;;;;;;4997910;28;20053;-85
2023/11/13 12:17:44;;;;;;;5.70;4.25;;;;;;;;;;4998836;28;20056;-85
2023/11/13 12:20:14;;;;;;;6.18;4.10;;;;;;;;;;4996579;28;20044;-85
2023/11/13 12:22:44;;;;;;;6.65;4.13;;;;;;;;;;5013547;28;20049;-85
2023/11/13 12:25:13;;;;;;;11.73;5.55;;;;;;;;;;4992298;28;20060;-85
2023/11/13 12:27:41;;;;;;;5.93;4.60;;;;;;;;;;5009434;28;20049;-85
2023/11/13 12:30:15;;;;;;;6.65;4.85;;;;;;;;;;5002448;28;20049;-85
2023/11/13 12:32:45;;;;;;;9.35;3.58;;;;;;;;;;5012377;28;20519;-85
2023/11/13 12:35:17;;;;;;;9.10;3.58;;;;;;;;;;5010431;28;20056;-85
2023/11/13 12:37:45;;;;;;;9.35;4.07;;;;;;;;;;5001495;28;20277;-85
2023/11/13 12:40:14;;;;;;;5.70;4.07;;;;;;;;;;5010891;28;20415;-86
2023/11/13 12:42:43;;;;;;;7.65;4.00;;;;;;;;;;5000268;28;20061;-85
2023/11/13 12:45:11;;;;;;;5.13;3.53;;;;;;;;;;5016994;28;20046;-85
2023/11/13 12:47:45;;;;;;;8.13;3.72;;;;;;;;;;5012241;28;20069;-85
2023/11/13 12:50:13;;;;;;;11.50;5.22;;;;;;;;;;4988825;28;20049;-86
2023/11/13 12:52:48;;;;;;;8.57;5.03;;;;;;;;;;4981068;28;20065;-86
2023/11/13 12:55:19;;;;;;;6.90;3.85;;;;;;;;;;4993341;28;20065;-86
2023/11/13 12:57:50;;;;;;;14.27;3.63;;;;;;;;;;5008116;28;20061;-86
2023/11/13 13:00:20;;;;;;;3.97;2.20;;;;;;;;;;4995526;28;20046;-86
2023/11/13 13:02:49;;;;;;;5.57;3.33;;;;;;;;;;4996870;28;20496;-85
2023/11/13 13:05:16;;;;;;;5.85;2.72;;;;;;;;;;4978548;28;20049;-86
2023/11/13 13:07:48;;;;;;;3.75;1.90;;;;;;;;;;4995594;28;20074;-85
2023/11/13 13:10:17;;;;;;;6.47;2.95;;;;;;;;;;4998967;28;20045;-86
2023/11/13 13:12:48;;;;;;;6.95;2.40;;;;;;;;;;4985676;28;20056;-86
2023/11/13 13:15:20;;;;;;;7.93;2.53;;;;;;;;;;4991465;28;20046;-86
2023/11/13 13:17:50;;;;;;;3.95;2.08;;;;;;;;;;4991425;28;20038;-85
2023/11/13 13:20:23;;;;;;;4.00;2.63;;;;;;;;;;5000164;28;20046;-86
2023/11/13 13:22:52;;;;;;;4.97;2.55;;;;;;;;;;5000571;28;20038;-86
2023/11/13 13:25:26;;;;;;;8.90;2.40;;;;;;;;;;5012403;28;20508;-86
2023/11/13 13:27:57;;;;;;;4.97;3.05;;;;;;;;;;4981111;28;20064;-85
2023/11/13 13:30:24;;;;;;;3.45;1.83;;;;;;;;;;4996002;28;20427;-86
2023/11/13 13:32:55;;;;;;;5.53;2.40;;;;;;;;;;4999223;28;20053;-85
2023/11/13 13:35:23;;;;;;;5.13;2.35;;;;;;;;;;4995700;28;20464;-85
2023/11/13 13:37:52;;;;;;;3.30;1.38;;;;;;;;;;4987845;28;20046;-85
2023/11/13 13:40:21;;;;;;;3.25;1.98;;;;;;;;;;4993725;28;20053;-86
2023/11/13 13:42:52;;;;;;;2.15;1.90;;;;;;;;;;5014577;28;20053;-85
2023/11/13 13:45:25;;;;;;;3.58;2.80;;;;;;;;;;5013691;28;20049;-86
2023/11/13 13:47:57;;;;;;;2.95;2.10;;;;;;;;;;4992797;28;20053;-85
2023/11/13 13:50:24;;;;;;;4.88;3.05;;;;;;;;;;5013545;28;20282;-85
2023/11/13 13:53:00;;;;;;;4.43;2.17;;;;;;;;;;4986127;28;20610;-85
2023/11/13 13:55:32;;;;;;;7.35;2.88;;;;;;;;;;5018505;28;20065;-85
2023/11/13 13:58:07;;;;;;;5.38;2.97;;;;;;;;;;4996263;28;20487;-85
2023/11/13 14:00:39;;;;;;;2.15;1.67;;;;;;;;;;5014074;28;20064;-85
2023/11/13 14:03:08;;;;;;;5.28;3.42;;;;;;;;;;5003352;28;20043;-85
2023/11/13 14:05:38;;;;;;;3.00;2.03;;;;;;;;;;4994749;28;20050;-85
2023/11/13 14:08:06;;;;;;;5.00;2.60;;;;;;;;;;4989676;28;20045;-85
2023/11/13 14:10:36;;;;;;;7.03;2.72;;;;;;;;;;5010322;28;20065;-85
2023/11/13 14:13:06;;;;;;;4.43;2.22;;;;;;;;;;5001031;28;20044;-85
2023/11/13 14:15:36;;;;;;;4.18;2.13;;;;;;;;;;4981171;28;20058;-86
2023/11/13 14:18:07;;;;;;;5.13;1.90;;;;;;;;;;5036688;22;20061;-83
2023/11/13 14:20:37;;;;;;;3.38;1.60;;;;;;;;;;5013953;28;20053;-83
2023/11/13 14:23:06;;;;;;;4.95;2.50;;;;;;;;;;5007629;28;20053;-83
2023/11/13 14:25:33;;;;;;;3.53;1.73;;;;;;;;;;5001162;28;20496;-83
2023/11/13 14:28:00;;;;;;;5.00;1.67;;;;;;;;;;5021003;28;20058;-83
2023/11/13 14:30:30;;;;;;;2.28;2.08;;;;;;;;;;5020584;28;20060;-82
2023/11/13 14:33:01;;;;;;;7.10;2.33;;;;;;;;;;5009706;28;20045;-82
2023/11/13 14:35:33;;;;;;;;;;;;;;;;;;5017475;28;20069;-83
2023/11/13 14:38:01;;;;;;;4.25;1.70;;;;;;;;;;5004315;28;19929;-83
2023/11/13 14:40:32;;;;;;;4.30;2.40;;;;;;;;;;4998200;28;20046;-83
2023/11/13 14:42:59;;;;;;;3.22;2.25;;;;;;;;;;4999591;28;20050;-81
2023/11/13 14:45:26;;;;;;;6.80;2.10;;;;;;;;;;5016881;28;20054;-81
2023/11/13 14:47:56;;;;;;;2.85;1.88;;;;;;;;;;4982357;28;20052;-81
2023/11/13 14:50:27;;;;;;;4.35;1.42;;;;;;;;;;5002826;28;20506;-81
2023/11/13 14:52:57;;;;;;;2.70;1.88;;;;;;;;;;5012475;28;20046;-81
2023/11/13 14:55:28;;;;;;;6.82;2.50;;;;;;;;;;4997401;28;20046;-83
2023/11/13 14:57:59;;;;;;;3.42;2.15;;;;;;;;;;4980625;28;20066;-83
2023/11/13 15:00:29;;;;;;;7.18;2.25;;;;;;;;;;4989985;28;20045;-83
2023/11/13 15:03:02;;;;;;;3.17;2.17;;;;;;;;;;4987428;28;20326;-82
2023/11/13 15:05:34;;;;;;;4.22;2.13;;;;;;;;;;5000858;28;20058;-83
2023/11/13 15:08:02;;;;;;;2.50;1.48;;;;;;;;;;5009423;28;20057;-83
2023/11/13 15:10:32;;;;;;;5.72;2.17;;;;;;;;;;4979760;28;20057;-83
2023/11/13 15:13:01;;;;;;;2.42;1.83;;;;;;;;;;4977360;28;20046;-83
2023/11/13 15:15:31;;;;;;;7.43;3.78;;;;;;;;;;4982474;28;20054;-83
2023/11/13 15:17:58;;;;;;;3.03;2.03;;;;;;;;;;4978178;28;20054;-83
2023/11/13 15:20:28;;;;;;;3.13;1.95;;;;;;;;;;4997279;28;20061;-83
2023/11/13 15:22:55;;;;;;;2.20;1.88;;;;;;;;;;5013093;28;20077;-83
2023/11/13 15:25:25;;;;;;;4.65;1.83;;;;;;;;;;4981403;28;20060;-83
2023/11/13 15:27:56;;;;;;;4.32;2.67;;;;;;;;;;4980207;28;20053;-83
2023/11/13 15:30:24;;;;;;;2.15;1.63;;;;;;;;;;4994926;28;21064;-82
2023/11/13 15:32:51;;;;;;;1.90;1.52;;;;;;;;;;5006237;28;20045;-82
2023/11/13 15:35:21;;;;;;;2.65;1.52;;;;;;;;;;4994502;28;20056;-81
2023/11/13 15:37:49;;;;;;;2.42;1.63;;;;;;;;;;4986199;28;20054;-82
2023/11/13 15:45:33;;;;;;;2.55;1.48;;;;;;;;;;5002308;28;20053;-82
2023/11/13 15:48:03;;;;;;;3.92;1.30;;;;;;;;;;5034649;28;20045;-82
2023/11/13 15:50:32;;;;;;;3.80;1.75;;;;;;;;;;5006860;28;20046;-82
2023/11/13 15:52:59;;;;;;;1.40;1.10;;;;;;;;;;5017824;28;20556;-82
2023/11/13 15:55:27;;;;;;;2.70;1.70;;;;;;;;;;4998021;28;20050;-82
2023/11/13 15:57:54;;;;;;;2.47;1.58;;;;;;;;;;5031965;28;20064;-82
2023/11/13 16:00:22;;;;;;;4.07;1.48;;;;;;;;;;5017711;28;20077;-82
2023/11/13 16:02:50;;;;;;;2.35;1.90;;;;;;;;;;5000256;28;20053;-82
2023/11/13 16:05:19;;;;;;;2.88;1.13;;;;;;;;;;4999200;28;20045;-82
2023/11/13 16:07:47;;;;;;;3.53;2.08;;;;;;;;;;4994062;28;20052;-82
2023/11/13 16:10:17;;;;;;;1.63;1.25;;;;;;;;;;5017335;28;20041;-82
2023/11/13 16:12:46;;;;;;;3.70;2.00;;;;;;;;;;5021698;28;20064;-82
2023/11/13 16:15:18;;;;;;;2.70;2.10;;;;;;;;;;4999008;28;20041;-82
2023/11/13 16:17:45;;;;;;;4.80;2.35;;;;;;;;;;5019000;28;20046;-82
2023/11/13 16:20:18;;;;;;;3.75;1.25;;;;;;;;;;5015477;28;20049;-82
2023/11/13 16:22:49;;;;;;;3.00;1.90;;;;;;;;;;5041522;28;20057;-82
2023/11/13 16:25:19;;;;;;;2.88;2.47;;;;;;;;;;5013407;28;20693;-82
2023/11/13 16:27:46;;;;;;;2.97;2.13;;;;;;;;;;5017442;28;20053;-82
2023/11/13 16:30:15;;;;;;;3.17;1.98;;;;;;;;;;5006343;28;20054;-82
2023/11/13 16:32:52;;;;;;;1.98;1.73;;;;;;;;;;5029425;28;20045;-82
2023/11/13 16:35:19;;;;;;;6.93;2.75;;;;;;;;;;5015949;28;20515;-82
2023/11/13 16:37:47;;;;;;;2.85;2.55;;;;;;;;;;5031731;28;20045;-82
2023/11/13 16:40:18;;;;;;;3.65;1.80;;;;;;;;;;4992042;28;20046;-82
2023/11/13 16:42:50;;;;;;;2.17;1.65;;;;;;;;;;5031858;28;20048;-81
2023/11/13 16:45:20;;;;;;;4.38;1.88;;;;;;;;;;5017303;28;20049;-82
2023/11/13 16:47:50;;;;;;;2.10;1.73;;;;;;;;;;5000509;28;20049;-82
2023/11/13 16:50:17;;;;;;;2.13;1.50;;;;;;;;;;5010955;28;20050;-82
2023/11/13 16:52:44;;;;;;;2.00;1.40;;;;;;;;;;5010575;28;20062;-83